createdAt,value
2023-01-16T00:01:03.969Z,25.23
2023-01-16T00:05:13.545Z,23.60
2023-01-16T00:07:17.495Z,26.05
2023-01-16T00:09:21.637Z,25.52
2023-01-16T00:11:25.436Z,20.13
2023-01-16T00:13:29.804Z,22.20
2023-01-16T00:15:34.096Z,21.30
2023-01-16T00:17:38.573Z,22.23
2023-01-16T00:19:43.793Z,18.42
2023-01-16T00:21:49.236Z,17.83
2023-01-16T00:23:53.279Z,19.67
2023-01-16T00:25:57.313Z,17.85
2023-01-16T00:28:01.321Z,15.02
2023-01-16T00:30:06.350Z,17.27
2023-01-16T00:32:11.429Z,16.92
2023-01-16T00:34:15.375Z,14.07
2023-01-16T00:36:20.566Z,14.63
2023-01-16T00:38:24.662Z,17.00
2023-01-16T00:40:28.769Z,13.52
2023-01-16T00:42:33.016Z,14.35
2023-01-16T00:44:36.727Z,13.75
2023-01-16T00:46:41.322Z,11.52
2023-01-16T00:48:45.470Z,14.93
2023-01-16T00:50:49.362Z,15.27
2023-01-16T00:52:54.626Z,13.35
2023-01-16T00:54:58.631Z,15.10
2023-01-16T00:57:02.372Z,14.10
2023-01-16T00:59:06.496Z,11.63
2023-01-16T01:01:13.020Z,13.38
2023-01-16T01:03:18.628Z,16.30
2023-01-16T01:05:23.018Z,12.80
2023-01-16T01:07:27.134Z,16.63
2023-01-16T01:09:32.763Z,17.45
2023-01-16T01:11:36.645Z,16.63
2023-01-16T01:13:41.083Z,11.90
2023-01-16T01:15:45.282Z,14.50
2023-01-16T01:17:49.294Z,18.45
2023-01-16T01:19:52.967Z,14.05
2023-01-16T01:21:56.668Z,15.35
2023-01-16T01:24:00.916Z,11.70
2023-01-16T01:26:11.186Z,14.02
2023-01-16T01:28:15.582Z,13.38
2023-01-16T01:30:20.601Z,9.95
2023-01-16T01:32:24.582Z,10.15
2023-01-16T01:34:30.254Z,9.65
2023-01-16T01:36:34.242Z,10.48
2023-01-16T01:38:38.552Z,12.05
2023-01-16T01:40:42.481Z,10.10
2023-01-16T01:42:53.272Z,13.07
2023-01-16T01:44:59.029Z,10.98
2023-01-16T01:47:03.079Z,10.20
2023-01-16T01:49:11.802Z,12.75
2023-01-16T01:51:21.072Z,13.80
2023-01-16T01:53:29.657Z,12.50
2023-01-16T01:55:33.702Z,12.32
2023-01-16T01:57:42.066Z,13.38
2023-01-16T01:59:52.367Z,12.43
2023-01-16T02:01:57.587Z,14.57
2023-01-16T02:04:04.480Z,11.23
2023-01-16T02:06:16.003Z,16.95
2023-01-16T02:08:21.708Z,10.75
2023-01-16T02:10:33.210Z,10.73
2023-01-16T02:12:38.267Z,12.55
2023-01-16T02:14:45.212Z,13.23
2023-01-16T02:17:12.135Z,9.77
2023-01-16T02:19:23.639Z,12.70
2023-01-16T02:21:53.847Z,9.15
2023-01-16T02:24:30.633Z,14.85
2023-01-16T02:27:02.565Z,7.68
2023-01-16T02:29:44.651Z,9.15
2023-01-16T02:31:53.176Z,11.75
2023-01-16T02:34:13.558Z,9.25
2023-01-16T02:36:25.499Z,9.30
2023-01-16T02:38:43.128Z,8.88
2023-01-16T02:40:54.557Z,7.35
2023-01-16T02:45:10.886Z,9.80
2023-01-16T02:47:24.020Z,9.73
2023-01-16T02:49:34.222Z,8.50
2023-01-16T02:51:46.596Z,7.15
2023-01-16T02:53:58.880Z,5.60
2023-01-16T02:56:09.897Z,7.60
2023-01-16T02:58:15.369Z,5.18
2023-01-16T03:00:21.288Z,5.80
2023-01-16T03:02:26.265Z,7.15
2023-01-16T03:04:56.824Z,5.15
2023-01-16T03:07:07.632Z,4.95
2023-01-16T03:09:25.750Z,3.10
2023-01-16T03:11:31.082Z,5.03
2023-01-16T03:13:51.628Z,4.43
2023-01-16T03:16:03.455Z,4.93
2023-01-16T03:18:20.305Z,4.53
2023-01-16T03:20:37.931Z,5.35
2023-01-16T03:25:00.051Z,4.53
2023-01-16T03:27:12.297Z,4.07
2023-01-16T03:29:26.117Z,3.35
2023-01-16T03:31:37.774Z,2.40
2023-01-16T03:33:50.308Z,3.40
2023-01-16T03:35:58.740Z,3.15
2023-01-16T03:38:07.067Z,3.22
2023-01-16T03:40:13.945Z,3.75
2023-01-16T03:42:23.251Z,2.65
2023-01-16T03:44:30.581Z,3.08
2023-01-16T03:46:39.792Z,3.92
2023-01-16T03:48:50.616Z,2.15
2023-01-16T03:50:58.681Z,2.03
2023-01-16T03:53:08.430Z,2.28
2023-01-16T03:55:18.568Z,2.03
2023-01-16T03:57:25.733Z,3.15
2023-01-16T03:59:29.687Z,2.45
2023-01-16T04:01:40.150Z,2.83
2023-01-16T04:03:55.828Z,2.50
2023-01-16T04:06:11.194Z,2.35
2023-01-16T04:08:20.441Z,2.15
2023-01-16T04:10:27.660Z,3.20
2023-01-16T04:12:35.302Z,2.20
2023-01-16T04:14:40.191Z,4.38
2023-01-16T04:16:44.947Z,2.83
2023-01-16T04:18:51.929Z,2.10
2023-01-16T04:20:55.238Z,2.42
2023-01-16T04:22:58.993Z,2.70
2023-01-16T04:25:06.274Z,3.08
2023-01-16T04:27:09.554Z,2.00
2023-01-16T04:29:12.893Z,1.08
2023-01-16T04:31:16.572Z,1.63
2023-01-16T04:33:19.935Z,1.80
2023-01-16T04:35:24.598Z,2.30
2023-01-16T04:37:28.242Z,3.78
2023-01-16T04:39:31.638Z,2.33
2023-01-16T04:41:38.430Z,1.90
2023-01-16T04:43:41.762Z,1.23
2023-01-16T04:45:45.169Z,2.65
2023-01-16T04:47:49.277Z,1.02
2023-01-16T04:49:53.117Z,1.73
2023-01-16T04:51:57.948Z,1.92
2023-01-16T04:54:01.381Z,1.90
2023-01-16T04:56:04.785Z,0.98
2023-01-16T04:58:08.269Z,1.25
2023-01-16T05:00:14.247Z,3.22
2023-01-16T05:02:17.810Z,3.20
2023-01-16T05:04:22.168Z,2.17
2023-01-16T05:06:25.603Z,1.45
2023-01-16T05:08:31.481Z,3.90
2023-01-16T05:10:34.875Z,2.08
2023-01-16T05:12:38.185Z,1.08
2023-01-16T05:14:41.639Z,1.75
2023-01-16T05:16:44.955Z,1.40
2023-01-16T05:18:48.493Z,3.53
2023-01-16T05:20:54.534Z,0.80
2023-01-16T05:22:58.001Z,6.70
2023-01-16T05:25:03.096Z,2.17
2023-01-16T05:29:10.359Z,1.95
2023-01-16T05:31:13.971Z,2.75
2023-01-16T05:33:17.825Z,0.73
2023-01-16T05:35:23.703Z,1.40
2023-01-16T05:37:29.849Z,0.98
2023-01-16T05:39:33.423Z,3.33
2023-01-16T05:41:38.402Z,3.45
2023-01-16T05:43:41.829Z,3.00
2023-01-16T05:45:45.229Z,1.77
2023-01-16T05:47:48.859Z,3.15
2023-01-16T05:49:52.977Z,5.05
2023-01-16T05:51:56.427Z,0.95
2023-01-16T05:53:59.835Z,2.33
2023-01-16T05:56:09.558Z,2.42
2023-01-16T05:58:15.981Z,2.35
2023-01-16T06:00:22.707Z,1.67
2023-01-16T06:02:26.601Z,2.95
2023-01-16T06:04:30.043Z,3.05
2023-01-16T06:06:33.352Z,6.07
2023-01-16T06:08:37.783Z,1.75
2023-01-16T06:10:41.142Z,2.38
2023-01-16T06:12:44.562Z,6.85
2023-01-16T06:14:49.479Z,4.22
2023-01-16T06:16:52.995Z,2.08
2023-01-16T06:18:56.224Z,1.98
2023-01-16T06:20:59.621Z,6.70
2023-01-16T06:23:03.735Z,1.90
2023-01-16T06:25:08.016Z,7.22
2023-01-16T06:27:11.410Z,2.28
2023-01-16T06:29:14.898Z,2.95
2023-01-16T06:31:19.840Z,2.65
2023-01-16T06:33:23.265Z,4.22
2023-01-16T06:35:26.860Z,4.18
2023-01-16T06:37:30.249Z,2.58
2023-01-16T06:39:33.764Z,2.58
2023-01-16T06:41:37.765Z,3.88
2023-01-16T06:43:41.634Z,5.82
2023-01-16T06:45:46.986Z,2.75
2023-01-16T06:47:55.774Z,5.07
2023-01-16T06:49:59.639Z,3.67
2023-01-16T06:52:04.285Z,2.90
2023-01-16T06:54:08.593Z,4.38
2023-01-16T06:56:12.415Z,5.72
2023-01-16T06:58:16.920Z,4.07
2023-01-16T07:00:21.714Z,3.60
2023-01-16T07:02:25.484Z,2.20
2023-01-16T07:04:31.270Z,2.88
2023-01-16T07:06:35.831Z,4.45
2023-01-16T07:08:39.736Z,5.70
2023-01-16T07:10:43.805Z,4.50
2023-01-16T07:12:47.646Z,3.00
2023-01-16T07:15:08.415Z,3.25
2023-01-16T07:17:31.076Z,4.03
2023-01-16T07:19:53.721Z,1.65
2023-01-16T07:22:14.657Z,2.70
2023-01-16T07:24:22.676Z,3.20
2023-01-16T07:26:27.717Z,2.13
2023-01-16T07:28:32.019Z,5.20
2023-01-16T07:30:35.830Z,6.13
2023-01-16T07:32:40.665Z,6.35
2023-01-16T07:34:46.073Z,4.32
2023-01-16T07:36:50.020Z,2.78
2023-01-16T07:38:54.116Z,2.45
2023-01-16T07:40:58.582Z,1.50
2023-01-16T07:43:03.560Z,2.55
2023-01-16T07:45:08.983Z,3.05
2023-01-16T07:49:18.228Z,1.88
2023-01-16T07:51:23.799Z,3.08
2023-01-16T07:53:30.508Z,4.80
2023-01-16T07:55:34.902Z,3.00
2023-01-16T07:57:39.400Z,2.50
2023-01-16T07:59:43.743Z,3.25
2023-01-16T08:01:48.377Z,2.28
2023-01-16T08:03:52.819Z,3.10
2023-01-16T08:06:00.600Z,3.15
2023-01-16T08:08:06.864Z,4.15
2023-01-16T08:10:12.919Z,9.00
2023-01-16T08:12:17.016Z,3.80
2023-01-16T08:14:21.356Z,3.08
2023-01-16T08:16:27.190Z,5.68
2023-01-16T08:18:31.084Z,3.60
2023-01-16T08:20:35.463Z,2.75
2023-01-16T08:22:45.735Z,6.80
2023-01-16T08:24:51.299Z,5.45
2023-01-16T08:26:55.276Z,3.55
2023-01-16T08:28:59.327Z,5.13
2023-01-16T08:31:09.237Z,5.55
2023-01-16T08:33:13.681Z,4.28
2023-01-16T08:35:17.968Z,4.60
2023-01-16T08:37:22.281Z,4.15
2023-01-16T08:39:28.820Z,4.10
2023-01-16T08:41:52.098Z,6.10
2023-01-16T08:44:13.811Z,8.43
2023-01-16T08:46:37.912Z,7.15
2023-01-16T08:51:20.440Z,4.80
2023-01-16T08:53:25.099Z,5.65
2023-01-16T08:55:29.979Z,5.78
2023-01-16T08:57:36.651Z,10.25
2023-01-16T08:59:41.712Z,4.07
2023-01-16T09:01:46.116Z,5.65
2023-01-16T09:03:50.443Z,3.00
2023-01-16T09:05:55.052Z,3.83
2023-01-16T09:07:59.929Z,3.58
2023-01-16T09:10:04.684Z,6.00
2023-01-16T09:12:28.475Z,7.22
2023-01-16T09:14:34.137Z,7.93
2023-01-16T09:16:38.787Z,7.78
2023-01-16T09:18:43.357Z,6.35
2023-01-16T09:20:49.090Z,4.63
2023-01-16T09:23:00.523Z,7.53
2023-01-16T09:27:09.742Z,3.15
2023-01-16T09:29:14.097Z,4.47
2023-01-16T09:31:21.465Z,6.05
2023-01-16T09:33:26.417Z,2.83
2023-01-16T09:35:31.712Z,4.78
2023-01-16T09:37:36.572Z,4.75
2023-01-16T09:39:40.992Z,6.40
2023-01-16T09:42:16.407Z,5.97
2023-01-16T09:44:21.029Z,5.18
2023-01-16T09:46:30.676Z,4.20
2023-01-16T09:48:36.652Z,2.83
2023-01-16T09:50:46.446Z,4.82
2023-01-16T09:53:09.390Z,5.35
2023-01-16T09:55:39.429Z,7.50
2023-01-16T09:58:04.326Z,11.27
2023-01-16T10:00:11.629Z,3.08
2023-01-16T10:02:23.278Z,2.92
2023-01-16T10:04:28.691Z,3.88
2023-01-16T10:06:38.433Z,2.28
2023-01-16T10:08:52.921Z,2.47
2023-01-16T10:11:01.737Z,7.20
2023-01-16T10:13:20.500Z,2.35
2023-01-16T10:15:34.594Z,4.63
2023-01-16T10:17:49.426Z,2.97
2023-01-16T10:20:15.550Z,5.30
2023-01-16T10:22:38.689Z,2.25
2023-01-16T10:24:54.317Z,8.15
2023-01-16T10:27:00.827Z,4.90
2023-01-16T10:29:16.493Z,5.15
2023-01-16T10:31:26.089Z,2.65
2023-01-16T10:33:48.928Z,1.92
2023-01-16T10:35:59.562Z,4.25
2023-01-16T10:38:22.671Z,2.63
2023-01-16T10:40:30.322Z,3.75
2023-01-16T10:42:53.991Z,4.55
2023-01-16T10:45:29.325Z,4.43
2023-01-16T10:47:54.265Z,6.13
2023-01-16T10:50:00.295Z,3.55
2023-01-16T10:52:08.370Z,3.92
2023-01-16T10:54:12.807Z,4.13
2023-01-16T10:56:17.331Z,3.20
2023-01-16T10:58:28.345Z,4.45
2023-01-16T11:00:36.514Z,6.85
2023-01-16T11:02:44.229Z,2.00
2023-01-16T11:04:49.073Z,2.70
2023-01-16T11:07:15.503Z,2.42
2023-01-16T11:09:22.394Z,2.97
2023-01-16T11:11:45.239Z,2.83
2023-01-16T11:14:07.169Z,6.32
2023-01-16T11:16:39.496Z,4.13
2023-01-16T11:18:44.479Z,3.10
2023-01-16T11:20:51.354Z,3.63
2023-01-16T11:23:00.224Z,1.52
2023-01-16T11:25:06.165Z,2.28
2023-01-16T11:27:16.683Z,1.75
2023-01-16T11:29:24.734Z,6.45
2023-01-16T11:31:32.687Z,3.75
2023-01-16T11:33:41.079Z,3.15
2023-01-16T11:35:52.831Z,3.33
2023-01-16T11:37:58.760Z,1.98
2023-01-16T11:40:06.566Z,5.20
2023-01-16T11:42:28.446Z,2.30
2023-01-16T11:44:54.510Z,5.68
2023-01-16T11:47:01.310Z,2.70
2023-01-16T11:49:07.404Z,5.55
2023-01-16T11:51:15.779Z,5.00
2023-01-16T11:53:21.840Z,2.60
2023-01-16T11:55:32.056Z,7.07
2023-01-16T11:57:46.764Z,4.13
2023-01-16T12:00:24.642Z,4.55
2023-01-16T12:03:03.064Z,1.38
2023-01-16T12:05:33.697Z,6.03
2023-01-16T12:07:49.309Z,5.82
2023-01-16T12:10:03.005Z,5.03
2023-01-16T12:12:47.444Z,3.55
2023-01-16T12:14:57.925Z,4.32
2023-01-16T12:17:12.373Z,6.15
2023-01-16T12:19:42.697Z,4.28
2023-01-16T12:21:51.603Z,4.25
2023-01-16T12:24:10.798Z,6.40
2023-01-16T12:26:24.115Z,5.03
2023-01-16T12:28:39.270Z,3.05
2023-01-16T12:31:12.205Z,5.10
2023-01-16T12:33:28.170Z,3.50
2023-01-16T12:35:46.112Z,3.70
2023-01-16T12:38:07.411Z,2.13
2023-01-16T12:40:26.265Z,5.53
2023-01-16T12:43:08.655Z,4.53
2023-01-16T12:45:30.776Z,7.45
2023-01-16T12:47:47.281Z,3.22
2023-01-16T12:50:06.383Z,2.60
2023-01-16T12:52:26.550Z,1.92
2023-01-16T12:54:43.977Z,2.78
2023-01-16T12:57:03.972Z,4.03
2023-01-16T12:59:17.234Z,2.63
2023-01-16T13:01:25.732Z,2.33
2023-01-16T13:03:37.291Z,2.88
2023-01-16T13:05:43.972Z,4.88
2023-01-16T13:07:55.054Z,10.50
2023-01-16T13:10:19.642Z,4.40
2023-01-16T13:12:45.545Z,5.45
2023-01-16T13:14:57.535Z,1.90
2023-01-16T13:17:07.020Z,3.00
2023-01-16T13:19:17.254Z,3.83
2023-01-16T13:21:24.479Z,1.40
2023-01-16T13:23:34.389Z,3.45
2023-01-16T13:25:43.485Z,4.93
2023-01-16T13:27:55.584Z,3.70
2023-01-16T13:30:07.893Z,2.63
2023-01-16T13:32:24.995Z,5.38
2023-01-16T13:34:34.984Z,3.33
2023-01-16T13:37:10.999Z,7.65
2023-01-16T13:39:57.926Z,4.72
2023-01-16T13:42:05.583Z,5.80
2023-01-16T13:44:34.971Z,2.80
2023-01-16T13:46:41.503Z,4.50
2023-01-16T13:48:52.480Z,3.33
2023-01-16T13:51:01.753Z,3.42
2023-01-16T13:53:10.633Z,3.08
2023-01-16T13:55:29.861Z,4.05
2023-01-16T13:57:35.259Z,3.72
2023-01-16T13:59:49.907Z,8.85
2023-01-16T14:01:59.483Z,3.30
2023-01-16T14:04:28.231Z,4.85
2023-01-16T14:06:46.461Z,2.05
2023-01-16T14:09:09.058Z,6.68
2023-01-16T14:11:30.122Z,4.80
2023-01-16T14:13:39.048Z,3.00
2023-01-16T14:16:11.448Z,3.70
2023-01-16T14:18:22.582Z,3.88
2023-01-16T14:20:46.265Z,2.45
2023-01-16T14:23:21.906Z,4.45
2023-01-16T14:25:28.786Z,3.17
2023-01-16T14:27:37.199Z,6.03
2023-01-16T14:29:50.693Z,4.13
2023-01-16T14:31:57.817Z,4.97
2023-01-16T14:34:05.282Z,1.92
2023-01-16T14:36:15.985Z,2.47
2023-01-16T14:38:22.578Z,1.48
2023-01-16T14:40:43.605Z,4.63
2023-01-16T14:43:09.297Z,3.17
2023-01-16T14:45:48.883Z,3.08
2023-01-16T14:48:19.278Z,3.95
2023-01-16T14:51:03.368Z,2.03
2023-01-16T14:53:36.807Z,6.35
2023-01-16T14:55:53.042Z,3.53
2023-01-16T14:58:06.536Z,4.50
2023-01-16T15:00:18.604Z,4.03
2023-01-16T15:02:31.877Z,5.15
2023-01-16T15:04:46.945Z,4.63
2023-01-16T15:06:56.562Z,2.90
2023-01-16T15:09:02.334Z,8.20
2023-01-16T15:11:27.676Z,3.55
2023-01-16T15:13:53.982Z,5.93
2023-01-16T15:16:02.325Z,4.07
2023-01-16T15:18:23.693Z,2.38
2023-01-16T15:20:46.317Z,2.83
2023-01-16T15:22:54.112Z,7.75
2023-01-16T15:25:04.596Z,6.70
2023-01-16T15:27:15.103Z,10.32
2023-01-16T15:29:40.203Z,3.92
2023-01-16T15:31:46.477Z,5.15
2023-01-16T15:34:01.694Z,5.13
2023-01-16T15:36:16.752Z,3.33
2023-01-16T15:38:21.833Z,11.50
2023-01-16T15:40:27.580Z,6.25
2023-01-16T15:42:49.417Z,4.28
2023-01-16T15:45:12.406Z,5.38
2023-01-16T15:47:52.980Z,7.15
2023-01-16T15:50:08.498Z,4.95
2023-01-16T15:52:12.601Z,7.70
2023-01-16T15:54:18.268Z,7.10
2023-01-16T15:56:25.207Z,7.43
2023-01-16T15:58:29.393Z,10.23
2023-01-16T16:00:36.054Z,6.50
2023-01-16T16:02:45.404Z,7.03
2023-01-16T16:04:52.455Z,3.80
2023-01-16T16:06:56.550Z,8.25
2023-01-16T16:09:00.885Z,5.68
2023-01-16T16:11:26.168Z,5.00
2023-01-16T16:13:30.131Z,6.95
2023-01-16T16:15:51.384Z,5.68
2023-01-16T16:18:02.349Z,7.15
2023-01-16T16:20:30.283Z,4.95
2023-01-16T16:22:51.967Z,5.75
2023-01-16T16:24:56.633Z,8.52
2023-01-16T16:27:07.846Z,7.07
2023-01-16T16:31:28.083Z,8.32
2023-01-16T16:33:35.467Z,7.00
2023-01-16T16:35:39.681Z,8.50
2023-01-16T16:37:46.351Z,9.18
2023-01-16T16:39:56.628Z,11.45
2023-01-16T16:42:20.583Z,10.00
2023-01-16T16:46:34.666Z,6.80
2023-01-16T16:48:39.434Z,9.40
2023-01-16T16:50:43.750Z,10.15
2023-01-16T16:52:51.614Z,8.35
2023-01-16T16:54:56.977Z,7.20
2023-01-16T16:57:03.244Z,9.50
2023-01-16T16:59:09.946Z,12.20
2023-01-16T17:01:16.744Z,31.08
2023-01-16T17:03:23.289Z,12.90
2023-01-16T17:05:28.669Z,8.25
2023-01-16T17:07:33.015Z,10.60
2023-01-16T17:09:37.853Z,21.83
2023-01-16T17:11:42.961Z,21.88
2023-01-16T17:13:48.732Z,16.23
2023-01-16T17:15:56.341Z,15.93
2023-01-16T17:18:03.275Z,13.75
2023-01-16T17:20:08.759Z,14.57
2023-01-16T17:22:13.400Z,12.75
2023-01-16T17:24:18.590Z,16.83
2023-01-16T17:26:23.401Z,12.93
2023-01-16T17:28:27.613Z,13.52
2023-01-16T17:30:34.377Z,13.63
2023-01-16T17:32:40.014Z,16.05
2023-01-16T17:34:44.436Z,11.50
2023-01-16T17:36:52.871Z,18.67
2023-01-16T17:38:57.191Z,14.27
2023-01-16T17:41:01.480Z,26.83
2023-01-16T17:43:23.152Z,22.88
2023-01-16T17:45:58.275Z,23.05
2023-01-16T17:48:02.703Z,17.35
2023-01-16T17:50:21.319Z,18.42
2023-01-16T17:52:26.069Z,14.13
2023-01-16T17:54:49.909Z,16.85
2023-01-16T17:56:54.229Z,17.80
2023-01-16T17:59:07.559Z,18.92
2023-01-16T18:01:15.684Z,21.98
2023-01-16T18:03:20.213Z,18.83
2023-01-16T18:05:25.249Z,15.68
2023-01-16T18:07:29.591Z,17.70
2023-01-16T18:09:34.002Z,23.17
2023-01-16T18:11:57.125Z,19.30
2023-01-16T18:14:18.448Z,18.17
2023-01-16T18:16:41.130Z,15.18
2023-01-16T18:18:45.688Z,11.48
2023-01-16T18:21:11.508Z,20.50
2023-01-16T18:23:17.792Z,11.35
2023-01-16T18:25:21.601Z,14.38
2023-01-16T18:27:26.732Z,7.90
2023-01-16T18:29:31.620Z,11.20
2023-01-16T18:31:36.962Z,12.30
2023-01-16T18:35:44.500Z,7.93
2023-01-16T18:38:09.434Z,12.05
2023-01-16T18:40:32.785Z,9.50
2023-01-16T18:42:53.751Z,9.52
2023-01-16T18:45:15.189Z,11.68
2023-01-16T18:47:37.855Z,13.18
2023-01-16T18:50:07.345Z,11.52
2023-01-16T18:52:33.187Z,13.23
2023-01-16T18:54:54.292Z,15.32
2023-01-16T18:57:18.367Z,13.48
2023-01-16T18:59:41.570Z,16.90
2023-01-16T19:01:59.408Z,19.63
2023-01-16T19:06:09.286Z,17.50
2023-01-16T19:08:22.716Z,17.20
2023-01-16T19:10:29.650Z,19.60
2023-01-16T19:12:35.955Z,18.60
2023-01-16T19:14:44.684Z,19.08
2023-01-16T19:16:54.845Z,23.00
2023-01-16T19:19:05.787Z,24.38
2023-01-16T19:23:15.280Z,19.63
2023-01-16T19:25:19.074Z,25.20
2023-01-16T19:27:25.029Z,25.77
2023-01-16T19:29:30.274Z,21.35
2023-01-16T19:31:33.981Z,24.67
2023-01-16T19:33:39.230Z,27.02
2023-01-16T19:35:44.953Z,23.23
2023-01-16T19:37:50.459Z,19.45
2023-01-16T19:42:17.346Z,20.83
2023-01-16T19:44:38.351Z,18.90
2023-01-16T19:46:46.067Z,20.15
2023-01-16T19:48:51.236Z,24.25
2023-01-16T19:50:55.586Z,24.33
2023-01-16T19:53:00.905Z,21.95
2023-01-16T19:55:05.718Z,18.10
2023-01-16T19:57:09.610Z,20.00
2023-01-16T19:59:14.677Z,24.25
2023-01-16T20:01:19.137Z,19.08
2023-01-16T20:03:22.964Z,20.02
2023-01-16T20:05:27.489Z,24.73
2023-01-16T20:07:31.170Z,26.38
2023-01-16T20:09:37.720Z,23.42
2023-01-16T20:11:58.809Z,28.58
2023-01-16T20:14:02.646Z,27.83
2023-01-16T20:16:07.665Z,26.73
2023-01-16T20:18:11.749Z,23.10
2023-01-16T20:20:15.535Z,22.90
2023-01-16T20:22:34.167Z,24.52
2023-01-16T20:24:40.944Z,22.17
2023-01-16T20:26:44.739Z,25.40
2023-01-16T20:28:50.373Z,24.17
2023-01-16T20:30:58.931Z,23.70
2023-01-16T20:33:03.484Z,25.70
2023-01-16T20:35:08.561Z,22.98
2023-01-16T20:37:12.391Z,22.73
2023-01-16T20:39:16.152Z,29.05
2023-01-16T20:41:37.388Z,23.48
2023-01-16T20:43:58.423Z,26.10
2023-01-16T20:46:05.970Z,25.42
2023-01-16T20:48:11.072Z,25.17
2023-01-16T20:50:14.818Z,22.60
2023-01-16T20:52:20.303Z,18.02
2023-01-16T20:54:24.905Z,23.60
2023-01-16T20:56:30.222Z,26.25
2023-01-16T20:58:34.906Z,18.65
2023-01-16T21:00:39.016Z,21.20
2023-01-16T21:02:42.830Z,19.90
2023-01-16T21:04:51.811Z,17.05
2023-01-16T21:06:55.543Z,19.65
2023-01-16T21:08:59.293Z,20.50
2023-01-16T21:11:23.256Z,19.27
2023-01-16T21:15:49.457Z,18.83
2023-01-16T21:18:09.668Z,16.98
2023-01-16T21:20:27.414Z,18.83
2023-01-16T21:24:35.643Z,29.00
2023-01-16T21:26:41.179Z,26.38
2023-01-16T21:28:46.299Z,22.13
2023-01-16T21:30:49.825Z,21.45
2023-01-16T21:32:55.933Z,18.85
2023-01-16T21:34:59.838Z,16.30
2023-01-16T21:37:03.798Z,14.88
2023-01-16T21:39:07.632Z,16.10
2023-01-16T21:41:13.294Z,16.45
2023-01-16T21:43:34.261Z,18.15
2023-01-16T21:45:56.546Z,14.85
2023-01-16T21:48:04.874Z,18.77
2023-01-16T21:50:10.486Z,23.65
2023-01-16T21:52:14.164Z,21.23
2023-01-16T21:54:17.996Z,16.33
2023-01-16T21:56:21.594Z,21.65
2023-01-16T21:58:30.609Z,26.27
2023-01-16T22:00:34.798Z,20.48
2023-01-16T22:02:39.821Z,17.33
2023-01-16T22:04:43.878Z,20.83
2023-01-16T22:06:47.528Z,22.67
2023-01-16T22:08:51.623Z,23.00
2023-01-16T22:11:12.320Z,20.40
2023-01-16T22:13:33.247Z,18.95
2023-01-16T22:15:57.548Z,21.65
2023-01-16T22:18:14.870Z,19.67
2023-01-16T22:20:40.096Z,21.63
2023-01-16T22:22:50.472Z,22.90
2023-01-16T22:24:55.242Z,19.23
2023-01-16T22:26:58.932Z,19.40
2023-01-16T22:29:02.590Z,19.25
2023-01-16T22:31:07.222Z,16.40
2023-01-16T22:33:12.472Z,25.08
2023-01-16T22:35:16.759Z,20.20
2023-01-16T22:37:22.050Z,17.40
2023-01-16T22:41:28.737Z,19.52
2023-01-16T22:43:49.978Z,20.10
2023-01-16T22:46:11.004Z,21.23
2023-01-16T22:48:16.115Z,22.45
2023-01-16T22:50:20.400Z,18.98
2023-01-16T22:52:25.409Z,17.00
2023-01-16T22:54:28.986Z,20.50
2023-01-16T22:56:32.560Z,20.95
2023-01-16T22:58:36.512Z,15.60
2023-01-16T23:00:40.339Z,26.08
2023-01-16T23:02:44.100Z,18.23
2023-01-16T23:04:49.199Z,31.52
2023-01-16T23:06:53.179Z,26.45
2023-01-16T23:08:58.761Z,19.13
2023-01-16T23:13:20.025Z,18.90
2023-01-16T23:15:23.499Z,25.42
2023-01-16T23:17:29.276Z,14.93
2023-01-16T23:19:34.644Z,18.80
2023-01-16T23:23:43.356Z,14.75
2023-01-16T23:25:46.941Z,18.92
2023-01-16T23:27:50.599Z,11.63
2023-01-16T23:29:54.249Z,18.10
2023-01-16T23:31:57.872Z,13.50
2023-01-16T23:34:01.825Z,16.48
2023-01-16T23:36:16.485Z,18.35
2023-01-16T23:38:22.352Z,14.80
2023-01-16T23:40:25.959Z,17.35
2023-01-16T23:42:46.602Z,18.05
2023-01-16T23:44:50.410Z,15.45
2023-01-16T23:46:54.029Z,15.23
2023-01-16T23:48:57.672Z,13.95
2023-01-16T23:51:05.032Z,13.80
2023-01-16T23:53:08.925Z,10.35
2023-01-16T23:55:14.260Z,14.27
2023-01-16T23:57:19.867Z,13.95
2023-01-16T23:59:23.362Z,17.27
